Flight Track Log - Related Links

Times and Time Zones

All times are in EDT time to prevent confusion due to time zone crossing. See the TAM3891 flight status page for this flight to view local times or setup timezone preferences in your user account.

Time Position Orientation Groundspeed Altitude Reporting Facility
EDT Latitude Longitude Course Direction KTS MPH feet Rate Location/Type
Fri 10:06:25 PM -8.1230 -34.9230 122° Southeast  Level FlightAware ADS-B
Fri 10:09:05 PM -8.1300 -34.9220 163° South 105 121 398 Level FlightAware ADS-B
Fri 10:09:26 PM -8.1450 -34.9180 165° South 142 163 1,200 2,609 Climbing FlightAware ADS-B
Fri 10:09:51 PM -8.1570 -34.9280 220° Southwest 159 183 2,000 1,867 Climbing FlightAware ADS-B
Fri 10:10:11 PM -8.1640 -34.9420 243° Southwest 164 189 2,600 1,886 Climbing FlightAware ADS-B
Fri 10:10:26 PM -8.1680 -34.9530 250° West 165 190 3,100 1,543 Climbing FlightAware ADS-B
Fri 10:10:46 PM -8.1750 -34.9680 245° Southwest 186 214 3,500 1,050 Climbing FlightAware ADS-B
Fri 10:11:06 PM -8.1830 -34.9850 245° Southwest 212 244 3,800 1,050 Climbing FlightAware ADS-B
Fri 10:11:26 PM -8.1920 -35.0050 246° West 243 280 4,200 1,050 Climbing FlightAware ADS-B
Fri 10:11:46 PM -8.2050 -35.0250 237° Southwest 270 311 4,500 1,286 Climbing FlightAware ADS-B
Fri 10:11:54 PM -8.2130 -35.0300 212° Southwest 272 313 4,800 2,571 Climbing FlightAware ADS-B
Fri 10:12:14 PM -8.2340 -35.0420 209° Southwest 277 319 5,700 2,850 Climbing FlightAware ADS-B
Fri 10:12:34 PM -8.2590 -35.0560 209° Southwest 282 325 6,700 3,000 Climbing FlightAware ADS-B
Fri 10:13:14 PM -8.2960 -35.0770 209° Southwest 265 305 8,700 2,813 Climbing FlightAware ADS-B
Fri 10:13:38 PM -8.3220 -35.0920 210° Southwest 267 307 9,700 2,526 Climbing FlightAware ADS-B
Fri 10:14:11 PM -8.3580 -35.1130 210° Southwest 270 311 11,100 2,055 Climbing FlightAware ADS-B
Fri 10:14:51 PM -8.4030 -35.1390 210° Southwest 294 338 12,200 1,315 Climbing FlightAware ADS-B
Fri 10:15:24 PM -8.4460 -35.1640 210° Southwest 329 379 12,700 923 Climbing FlightAware ADS-B
Fri 10:15:56 PM -8.4900 -35.1900 210° Southwest 362 417 13,200 1,667 Climbing FlightAware ADS-B
Fri 10:16:36 PM -8.5510 -35.2260 210° Southwest 376 433 14,700 2,055 Climbing FlightAware ADS-B
Fri 10:17:09 PM -8.5990 -35.2540 210° Southwest 383 441 15,700 2,027 Climbing FlightAware ADS-B
Fri 10:17:50 PM -8.6640 -35.2910 209° Southwest 387 445 17,200 2,074 Climbing FlightAware ADS-B
Fri 10:18:30 PM -8.7270 -35.3280 210° Southwest 390 449 18,500 1,808 Climbing FlightAware ADS-B
Fri 10:19:03 PM -8.7780 -35.3580 210° Southwest 394 453 19,400 1,565 Climbing FlightAware ADS-B
Fri 10:19:39 PM -8.8370 -35.3920 210° Southwest 401 461 20,300 1,522 Climbing FlightAware ADS-B
Fri 10:20:10 PM -8.8850 -35.4210 211° Southwest 406 467 21,100 1,565 Climbing FlightAware ADS-B
Fri 10:20:48 PM -8.9500 -35.4580 209° Southwest 409 471 22,100 1,437 Climbing FlightAware ADS-B
Fri 10:21:21 PM -9.0040 -35.4900 210° Southwest 414 476 22,800 1,151 Climbing FlightAware ADS-B
Fri 10:22:01 PM -9.0620 -35.5240 210° Southwest 422 486 23,500 1,315 Climbing FlightAware ADS-B
Fri 10:22:34 PM -9.1270 -35.5660 213° Southwest 425 489 24,400 973 Climbing FlightAware ADS-B
Fri 10:23:15 PM -9.1770 -35.6170 225° Southwest 427 491 24,700 234 Climbing FlightAware ADS-B
Fri 10:23:51 PM -9.2200 -35.6600 225° Southwest 427 491 24,700  Level FlightAware ADS-B
Fri 10:24:27 PM -9.2620 -35.7030 225° Southwest 427 491 24,700 2,400 Level FlightAware ADS-B
Fri 10:25:01 PM -9.3330 -35.7810 227° Southwest 439 505 27,500 3,000 Climbing FlightAware ADS-B
Fri 10:25:33 PM -9.3770 -35.8270 226° Southwest 443 510 28,000 957 Climbing FlightAware ADS-B
Fri 10:26:10 PM -9.4310 -35.8840 226° Southwest 449 517 28,600 1,043 Climbing FlightAware ADS-B
Fri 10:26:42 PM -9.4740 -35.9290 226° Southwest 451 519 29,200 1,108 Climbing FlightAware ADS-B
Fri 10:27:15 PM -9.5260 -35.9830 226° Southwest 453 521 29,800 1,054 Climbing FlightAware ADS-B
Fri 10:27:56 PM -9.5860 -36.0470 226° Southwest 457 526 30,500 1,154 Climbing FlightAware ADS-B
Fri 10:28:33 PM -9.6390 -36.1020 226° Southwest 454 522 31,300 1,247 Climbing FlightAware ADS-B
Fri 10:29:13 PM -9.6980 -36.1640 226° Southwest 451 519 32,100 1,091 Climbing FlightAware ADS-B
Fri 10:29:50 PM -9.7470 -36.2150 226° Southwest 452 520 32,700 468 Climbing FlightAware ADS-B
Fri 10:30:30 PM -9.7960 -36.2660 226° Southwest 452 520 32,700  Level FlightAware ADS-B
Fri 10:31:06 PM -9.8410 -36.3130 226° Southwest 452 520 32,700  Level FlightAware ADS-B
Fri 10:31:42 PM -9.8850 -36.3600 226° Southwest 452 520 32,700  Level FlightAware ADS-B
Fri 10:32:18 PM -9.9290 -36.4070 226° Southwest 452 520 32,700  Level FlightAware ADS-B
Fri 10:32:54 PM -9.9740 -36.4530 225° Southwest 452 520 32,700  Level FlightAware ADS-B
Fri 10:33:30 PM -10.0180 -36.5000 226° Southwest 452 520 32,700  Level FlightAware ADS-B
Fri 10:34:07 PM -10.0640 -36.5480 226° Southwest 452 520 32,700  Level FlightAware ADS-B
Fri 10:34:44 PM -10.1100 -36.5960 226° Southwest 452 520 32,700  Level FlightAware ADS-B
Fri 10:35:20 PM -10.1540 -36.6430 226° Southwest 452 520 32,700  Level FlightAware ADS-B
Fri 10:35:57 PM -10.2000 -36.6910 226° Southwest 452 520 32,700  Level FlightAware ADS-B
Fri 10:36:33 PM -10.2440 -36.7380 226° Southwest 452 520 32,700  Level FlightAware ADS-B
Fri 10:37:10 PM -10.2900 -36.7860 226° Southwest 452 520 32,700  Level FlightAware ADS-B
Fri 10:37:46 PM -10.3340 -36.8330 226° Southwest 452 520 32,700  Level FlightAware ADS-B
Fri 10:38:22 PM -10.3790 -36.8790 225° Southwest 452 520 32,700  Level FlightAware ADS-B
Fri 10:38:58 PM -10.4230 -36.9260 226° Southwest 452 520 32,700  Level FlightAware ADS-B
Fri 10:39:34 PM -10.4680 -36.9730 226° Southwest 452 520 32,700 2,640 Level FlightAware ADS-B
Fri 10:40:13 PM -10.6630 -37.1810 226° Southwest 451 519 36,000 2,225 Climbing FlightAware ADS-B
Fri 10:41:03 PM -10.7290 -37.2510 226° Southwest 450 518 36,000  Level FlightAware ADS-B
Fri 10:41:35 PM -10.7820 -37.3080 227° Southwest 449 517 36,000  Level FlightAware ADS-B
Fri 10:42:08 PM -10.8230 -37.3510 226° Southwest 449 517 36,000  Level FlightAware ADS-B
Fri 10:43:00 PM -10.8990 -37.4310 226° Southwest 450 518 36,000  Level FlightAware ADS-B
Fri 10:43:32 PM -10.9500 -37.4850 226° Southwest 452 520 36,000  Level FlightAware ADS-B
Fri 10:44:11 PM -11.0070 -37.5460 226° Southwest 454 522 36,000  Level FlightAware ADS-B
Fri 10:44:43 PM -11.0540 -37.5960 226° Southwest 453 521 36,000  Level FlightAware ADS-B
Fri 10:45:19 PM -11.1070 -37.6520 226° Southwest 452 520 36,000 -667 Level FlightAware ADS-B
Fri 10:45:55 PM -11.1580 -37.7070 227° Southwest 456 525 35,200 -1,800 Descending FlightAware ADS-B
Fri 10:46:29 PM -11.2080 -37.7610 227° Southwest 451 519 33,900 -2,229 Descending FlightAware ADS-B
Fri 10:47:05 PM -11.2590 -37.8140 226° Southwest 440 506 32,600 -2,083 Descending FlightAware ADS-B
Fri 10:47:41 PM -11.3100 -37.8690 227° Southwest 432 497 31,400 -2,000 Descending FlightAware ADS-B
Fri 10:48:14 PM -11.3540 -37.9150 226° Southwest 427 491 30,300 -2,029 Descending FlightAware ADS-B
Fri 10:48:49 PM -11.4040 -37.9690 227° Southwest 422 486 29,100 -2,000 Descending FlightAware ADS-B
Fri 10:49:26 PM -11.4510 -38.0190 226° Southwest 416 479 27,900 -2,000 Descending FlightAware ADS-B
Fri 10:50:01 PM -11.4990 -38.0700 226° Southwest 410 472 26,700 -1,970 Descending FlightAware ADS-B
Fri 10:50:33 PM -11.5420 -38.1160 226° Southwest 405 466 25,700 -1,853 Descending FlightAware ADS-B
Fri 10:51:09 PM -11.5870 -38.1640 226° Southwest 400 460 24,600 -1,833 Descending FlightAware ADS-B
Fri 10:51:45 PM -11.6320 -38.2130 227° Southwest 394 453 23,500 -1,808 Descending FlightAware ADS-B
Fri 10:52:22 PM -11.6770 -38.2610 226° Southwest 390 449 22,400 -1,853 Descending FlightAware ADS-B
Fri 10:52:53 PM -11.7180 -38.3040 226° Southwest 385 443 21,400 -1,881 Descending FlightAware ADS-B
Fri 10:53:29 PM -11.7640 -38.3460 222° Southwest 374 430 20,300 -1,773 Descending FlightAware ADS-B
Fri 10:53:37 PM -11.7780 -38.3510 199° South 368 423 20,100 -1,500 Descending FlightAware ADS-B
Fri 10:53:49 PM -11.7960 -38.3540 189° South 363 418 19,800 -1,592 Descending FlightAware ADS-B
Fri 10:54:26 PM -11.8580 -38.3600 185° South 356 410 18,800 -1,583 Descending FlightAware ADS-B
Fri 10:55:01 PM -11.9150 -38.3670 187° South 353 406 17,900 -1,500 Descending FlightAware ADS-B
Fri 10:55:34 PM -11.9690 -38.3730 186° South 350 403 17,100 -1,457 Descending FlightAware ADS-B
Fri 10:56:11 PM -12.0300 -38.3800 186° South 349 402 16,200 -1,479 Descending FlightAware ADS-B
Fri 10:56:47 PM -12.0860 -38.3860 186° South 346 398 15,300 -1,543 Descending FlightAware ADS-B
Fri 10:57:21 PM -12.1430 -38.3920 186° South 344 396 14,400 -1,565 Descending FlightAware ADS-B
Fri 10:57:56 PM -12.1960 -38.4030 191° South 342 394 13,500 -1,500 Descending FlightAware ADS-B
Fri 10:58:33 PM -12.2540 -38.4170 193° South 339 390 12,600 -1,478 Descending FlightAware ADS-B
Fri 10:59:05 PM -12.3020 -38.4280 193° South 336 387 11,800 -1,500 Descending FlightAware ADS-B
Fri 10:59:41 PM -12.3570 -38.4400 192° South 333 383 10,900 -1,333 Descending FlightAware ADS-B
Fri 11:00:17 PM -12.4100 -38.4480 188° South 317 365 10,200 -1,286 Descending FlightAware ADS-B
Fri 11:00:37 PM -12.4390 -38.4500 184° South 316 364 9,700 -1,688 Descending FlightAware ADS-B
Fri 11:00:49 PM -12.4580 -38.4520 186° South 316 364 9,300 -1,500 Descending FlightAware ADS-B
Fri 11:01:13 PM -12.4920 -38.4540 183° South 309 356 8,800 -1,364 Descending FlightAware ADS-B
Fri 11:01:33 PM -12.5210 -38.4560 184° South 306 352 8,300 -1,350 Descending FlightAware ADS-B
Fri 11:01:53 PM -12.5490 -38.4580 184° South 301 346 7,900 -1,364 Descending FlightAware ADS-B
Fri 11:02:17 PM -12.5820 -38.4610 185° South 295 339 7,300 -1,286 Descending FlightAware ADS-B
Fri 11:02:35 PM -12.6070 -38.4630 184° South 289 333 7,000 -1,200 Descending FlightAware ADS-B
Fri 11:02:57 PM -12.6360 -38.4650 184° South 285 328 6,500 -1,286 Descending FlightAware ADS-B
Fri 11:03:17 PM -12.6630 -38.4670 184° South 277 319 6,100 -1,500 Descending FlightAware ADS-B
Fri 11:03:37 PM -12.6880 -38.4690 184° South 277 319 5,500 -1,500 Descending FlightAware ADS-B
Fri 11:04:01 PM -12.7190 -38.4710 184° South 270 311 5,000 -1,364 Descending FlightAware ADS-B
Fri 11:04:21 PM -12.7430 -38.4730 185° South 267 307 4,500 -1,500 Descending FlightAware ADS-B
Fri 11:04:41 PM -12.7680 -38.4750 184° South 266 306 4,000 -1,500 Descending FlightAware ADS-B
Fri 11:04:53 PM -12.7830 -38.4760 184° South 266 306 3,700 -1,500 Descending FlightAware ADS-B
Fri 11:05:17 PM -12.8130 -38.4780 184° South 266 306 3,100 -1,667 Descending FlightAware ADS-B
Fri 11:05:29 PM -12.8260 -38.4790 184° South 267 307 2,700 -1,667 Descending FlightAware ADS-B
Fri 11:05:53 PM -12.8560 -38.4810 184° South 267 307 2,100 -1,091 Descending FlightAware ADS-B
Fri 11:06:13 PM -12.8800 -38.4830 185° South 254 292 1,900 -375 Descending FlightAware ADS-B
Fri 11:06:25 PM -12.8940 -38.4840 184° South 238 274 1,900  Level FlightAware ADS-B
Fri 11:06:45 PM -12.9150 -38.4860 185° South 214 246 1,900 136 Level FlightAware ADS-B
Fri 11:07:09 PM -12.9310 -38.4740 144° Southeast 183 211 2,000  Climbing FlightAware ADS-B
Fri 11:07:17 PM -12.9340 -38.4670 114° Southeast 171 197 1,900 -500 Descending FlightAware ADS-B
Fri 11:07:21 PM -12.9340 -38.4640 90° East 167 192 1,900  Level FlightAware ADS-B
Fri 11:07:29 PM -12.9340 -38.4580 90° East 160 184 1,900 -200 Level FlightAware ADS-B
Fri 11:07:51 PM -12.9320 -38.4430 82° East 148 170 1,800 -429 Descending FlightAware ADS-B
Fri 11:08:11 PM -12.9300 -38.4290 82° East 140 161 1,600 -600 Descending FlightAware ADS-B
Fri 11:08:31 PM -12.9270 -38.4160 77° East 138 159 1,400 -682 Descending FlightAware ADS-B
Fri 11:08:55 PM -12.9240 -38.4000 79° East 138 159 1,100 -667 Descending FlightAware ADS-B
Fri 11:09:07 PM -12.9230 -38.3930 82° East 135 155 1,000 -600 Descending FlightAware ADS-B
Fri 11:09:25 PM -12.9210 -38.3820 79° East 134 154 800 -682 Descending FlightAware ADS-B
Fri 11:09:51 PM -12.9170 -38.3660 76° East 134 154 500 -652 Descending FlightAware ADS-B
Fri 11:10:11 PM -12.9150 -38.3530 81° East 133 153 300 -600 Descending FlightAware ADS-B
Fri 11:10:33 PM -12.9120 -38.3390 78° East 135 155 -818 Descending FlightAware ADS-B
Fri 11:10:53 PM -12.9090 -38.3270 76° East 120 138  Level FlightAware ADS-B

Login

Don't have an account? Register now (free) for customized features, flight alerts, and more!